Time;durP1;ratioP1;P1;durP2;ratioP2;P2;SDS_P1;SDS_P2;PMS_P1;PMS_P2;Temp;Humidity;BMP_temperature;BMP_pressure;BME280_temperature;BME280_humidity;BME280_pressure;Samples;Min_cycle;Max_cycle;Signal;HPM_P1;HPM_P2
2022/02/03 00:00:26;;;;;;;29.08;7.70;;;8.60;99.90;;;;;;5034028;28;20076;-77
2022/02/03 00:03:38;;;;;;;21.13;7.40;;;8.60;99.90;;;;;;5023058;28;20074;-78
2022/02/03 00:05:59;;;;;;;18.42;6.93;;;8.60;99.90;;;;;;5047669;28;20566;-78
2022/02/03 00:08:57;;;;;;;22.58;7.10;;;8.50;99.90;;;;;;5037790;28;20096;-77
2022/02/03 00:25:05;;;;;;;23.17;7.18;;;8.60;99.90;;;;;;5037596;28;20036;-77
2022/02/03 00:27:51;;;;;;;19.75;6.70;;;8.60;99.90;;;;;;5024213;28;20029;-77
2022/02/03 00:30:19;;;;;;;21.02;6.10;;;8.60;99.90;;;;;;5057315;28;20382;-77
2022/02/03 00:48:45;;;;;;;22.75;7.72;;;8.50;99.90;;;;;;5036737;28;20064;-76
2022/02/03 00:51:11;;;;;;;21.90;7.40;;;8.60;99.90;;;;;;5018539;28;20025;-76
2022/02/03 00:53:37;;;;;;;24.83;7.80;;;8.50;99.90;;;;;;5054278;28;20397;-76
2022/02/03 00:56:10;;;;;;;19.95;7.93;;;8.60;99.90;;;;;;5056261;28;20086;-76
2022/02/03 00:58:45;;;;;;;18.77;7.38;;;8.50;99.90;;;;;;5038189;28;20397;-77
2022/02/03 01:01:17;;;;;;;20.20;7.85;;;8.60;99.90;;;;;;5056565;28;20025;-77
2022/02/03 01:03:49;;;;;;;21.33;7.50;;;8.50;99.90;;;;;;5038166;28;20028;-77
2022/02/03 01:06:15;;;;;;;18.08;6.47;;;8.50;99.90;;;;;;5056656;28;20029;-76
2022/02/03 01:08:46;;;;;;;24.77;8.07;;;8.50;99.90;;;;;;5043180;28;20100;-77
2022/02/03 01:11:19;;;;;;;25.80;7.68;;;8.50;99.90;;;;;;5035423;28;20044;-77
2022/02/03 01:13:52;;;;;;;17.65;6.80;;;8.60;99.90;;;;;;5055941;28;20074;-76
2022/02/03 01:37:36;;;;;;;22.88;8.85;;;8.50;99.90;;;;;;5035703;28;20053;-76
2022/02/03 01:43:20;;;;;;;27.27;9.07;;;8.50;99.90;;;;;;5055422;28;20135;-76
2022/02/03 01:53:43;;;;;;;24.50;9.10;;;8.60;99.90;;;;;;5056075;28;20556;-78
2022/02/03 01:56:12;;;;;;;24.42;10.02;;;8.60;99.90;;;;;;5037263;28;20108;-78
2022/02/03 01:58:47;;;;;;;;;;;8.60;99.90;;;;;;5037606;28;20021;-78
2022/02/03 02:01:17;;;;;;;26.48;9.98;;;8.60;99.90;;;;;;5055252;28;19916;-77
2022/02/03 02:03:50;;;;;;;30.67;11.10;;;8.60;99.90;;;;;;5051107;28;20041;-78
2022/02/03 02:06:24;;;;;;;31.13;11.75;;;8.60;99.90;;;;;;5035246;28;20026;-78
2022/02/03 02:08:56;;;;;;;29.60;12.45;;;8.60;99.90;;;;;;5035149;28;20026;-78
2022/02/03 02:36:54;;;;;;;36.03;14.15;;;8.50;99.90;;;;;;5035414;28;20037;-76
2022/02/03 02:39:50;;;;;;;36.80;13.43;;;8.50;99.90;;;;;;5034792;28;20060;-77
2022/02/03 02:42:37;;;;;;;36.08;12.93;;;8.50;99.90;;;;;;5047461;28;20438;-79
2022/02/03 02:45:11;;;;;;;33.70;13.18;;;8.50;99.90;;;;;;5036666;28;20025;-78
2022/02/03 02:47:43;;;;;;;36.97;12.20;;;8.60;99.90;;;;;;5036289;28;20079;-78
2022/02/03 02:50:42;;;;;;;31.80;12.90;;;8.60;99.90;;;;;;5035988;28;20482;-78
2022/02/03 02:53:33;;;;;;;30.63;12.35;;;8.50;99.90;;;;;;5036137;28;20044;-79
2022/02/03 02:56:35;;;;;;;29.58;10.57;;;8.50;99.90;;;;;;5054341;28;20025;-78
2022/02/03 03:37:35;;;;;;;18.88;6.22;;;8.40;99.90;;;;;;5033919;28;20183;-77
2022/02/03 03:40:04;;;;;;;21.77;6.85;;;8.40;99.90;;;;;;5024722;28;20492;-78
2022/02/03 03:42:34;;;;;;;;;;;8.40;99.90;;;;;;5034988;28;20025;-77
2022/02/03 03:45:04;;;;;;;19.48;7.43;;;8.30;99.90;;;;;;5053531;28;19939;-78
2022/02/03 03:47:33;;;;;;;18.50;6.88;;;8.30;99.90;;;;;;5035861;28;20386;-77
2022/02/03 03:50:08;;;;;;;18.05;6.25;;;8.30;99.90;;;;;;5035553;28;20024;-77
2022/02/03 03:52:43;;;;;;;15.45;5.88;;;8.30;99.90;;;;;;5035399;28;20028;-78
2022/02/03 04:01:02;;;;;;;16.27;5.75;;;8.30;99.90;;;;;;5033806;28;20033;-78
2022/02/03 04:38:01;;;;;;;14.43;4.25;;;8.30;99.90;;;;;;5033320;28;20040;-77
2022/02/03 04:40:49;;;;;;;14.57;3.88;;;8.30;99.90;;;;;;5032828;28;20037;-77
2022/02/03 04:43:54;;;;;;;10.98;4.13;;;8.40;99.90;;;;;;5032660;28;20091;-77
2022/02/03 04:53:34;;;;;;;12.30;2.85;;;8.30;99.90;;;;;;5033614;28;20037;-76
2022/02/03 05:04:28;;;;;;;;;;;8.40;99.90;;;;;;5036920;28;20030;-78
2022/02/03 05:10:24;;;;;;;14.48;2.38;;;8.40;99.90;;;;;;5036951;28;20029;-79
2022/02/03 05:16:46;;;;;;;11.23;2.55;;;8.30;99.90;;;;;;5036319;28;20026;-77
2022/02/03 05:19:56;;;;;;;11.85;2.38;;;8.40;99.90;;;;;;5035758;28;20395;-79
2022/02/03 05:23:20;;;;;;;11.57;2.90;;;8.30;99.90;;;;;;5035515;28;20095;-77
2022/02/03 05:26:15;;;;;;;8.15;2.47;;;8.30;99.90;;;;;;5035725;28;20445;-77
2022/02/03 05:46:47;;;;;;;10.57;1.52;;;8.30;99.90;;;;;;5016622;28;20021;-77
2022/02/03 05:52:37;;;;;;;10.00;2.35;;;8.30;99.90;;;;;;5035734;28;20108;-77
2022/02/03 05:55:29;;;;;;;5.45;1.63;;;8.30;99.90;;;;;;5017526;28;20112;-78
2022/02/03 06:08:50;;;;;;;;;;;8.30;99.90;;;;;;5036001;28;20356;-79
2022/02/03 06:21:53;;;;;;;4.97;1.05;;;8.20;99.90;;;;;;4977721;28;20037;-79
2022/02/03 06:24:32;;;;;;;9.32;1.25;;;8.20;99.90;;;;;;5018448;28;20034;-79
2022/02/03 06:29:49;;;;;;;5.18;1.23;;;8.20;99.90;;;;;;5035428;28;20399;-78
2022/02/03 06:32:14;;;;;;;7.30;1.05;;;8.10;99.90;;;;;;5017409;28;20041;-78
2022/02/03 06:34:40;;;;;;;4.30;0.95;;;8.20;99.90;;;;;;5038412;28;20021;-80
2022/02/03 06:37:05;;;;;;;3.28;1.40;;;8.20;99.90;;;;;;5018018;28;20034;-74
2022/02/03 06:39:31;;;;;;;8.52;2.45;;;8.10;99.90;;;;;;5016719;28;20025;-76
2022/02/03 06:42:00;;;;;;;9.38;1.42;;;8.10;99.90;;;;;;5034118;28;20030;-76
2022/02/03 06:44:38;;;;;;;7.70;1.10;;;8.10;99.90;;;;;;5034643;28;20026;-77
2022/02/03 06:47:30;;;;;;;6.30;1.48;;;8.10;99.90;;;;;;5016623;28;20076;-77
2022/02/03 06:50:08;;;;;;;6.55;1.83;;;8.20;99.90;;;;;;5034513;28;20036;-76
2022/02/03 06:57:55;;;;;;;6.88;1.45;;;8.20;99.90;;;;;;5034311;28;20075;-76
2022/02/03 07:00:29;;;;;;;10.20;1.20;;;8.20;99.90;;;;;;5016396;28;20025;-79
2022/02/03 07:02:58;;;;;;;13.05;2.50;;;8.20;99.90;;;;;;5034219;28;20036;-76
2022/02/03 07:05:24;;;;;;;7.15;1.80;;;8.10;99.90;;;;;;5033959;28;20024;-75
2022/02/03 07:07:50;;;;;;;4.38;1.30;;;8.10;99.90;;;;;;5016190;28;20109;-75
2022/02/03 07:10:16;;;;;;;4.28;1.52;;;8.10;99.90;;;;;;5016204;28;20383;-76
2022/02/03 07:12:42;;;;;;;6.78;1.30;;;8.10;99.90;;;;;;5033932;28;20135;-72
2022/02/03 07:15:09;;;;;;;7.75;0.93;;;8.10;99.90;;;;;;5033863;28;20475;-77
2022/02/03 07:17:36;;;;;;;5.68;1.42;;;8.10;99.90;;;;;;5033906;28;20025;-78
2022/02/03 07:20:05;;;;;;;7.15;0.85;;;8.20;99.90;;;;;;5033657;28;20037;-78
2022/02/03 07:22:31;;;;;;;5.60;1.75;;;8.10;99.90;;;;;;5015777;28;20060;-77
2022/02/03 07:24:57;;;;;;;4.40;1.88;;;8.10;99.90;;;;;;5033432;28;20438;-77
2022/02/03 07:27:24;;;;;;;6.20;1.27;;;8.00;99.90;;;;;;5033612;28;20104;-76
2022/02/03 07:29:50;;;;;;;7.80;1.58;;;8.10;99.90;;;;;;5015789;28;20115;-77
2022/02/03 07:32:16;;;;;;;10.02;1.70;;;8.10;99.90;;;;;;5033718;28;20482;-75
2022/02/03 07:34:42;;;;;;;10.43;2.17;;;8.10;99.90;;;;;;5033493;28;20029;-75
2022/02/03 07:37:07;;;;;;;6.43;1.60;;;8.10;99.90;;;;;;5033461;28;20559;-75
2022/02/03 07:39:34;;;;;;;9.48;1.70;;;8.10;99.90;;;;;;5033930;28;20418;-74
2022/02/03 07:42:00;;;;;;;4.85;1.23;;;8.10;99.90;;;;;;5033217;28;20018;-75
2022/02/03 07:44:26;;;;;;;5.22;1.20;;;8.10;99.90;;;;;;5033593;28;20028;-75
2022/02/03 07:46:52;;;;;;;7.90;1.90;;;8.00;99.90;;;;;;5033281;28;20057;-76
2022/02/03 07:49:18;;;;;;;11.82;1.67;;;8.00;99.90;;;;;;5033448;28;20045;-75
2022/02/03 07:51:44;;;;;;;9.10;1.80;;;8.00;99.90;;;;;;5033151;28;20029;-74
2022/02/03 07:54:10;;;;;;;8.57;1.48;;;8.00;99.90;;;;;;5033130;28;20030;-74
2022/02/03 07:56:36;;;;;;;4.45;1.52;;;8.00;99.90;;;;;;5033708;28;20096;-74
2022/02/03 07:59:02;;;;;;;7.88;1.58;;;8.00;99.90;;;;;;5033089;28;20025;-74
2022/02/03 08:01:28;;;;;;;6.18;1.13;;;8.00;99.90;;;;;;5015398;28;20407;-75
2022/02/03 08:03:54;;;;;;;5.78;1.95;;;8.00;99.90;;;;;;5033604;28;20049;-75
2022/02/03 08:06:26;;;;;;;7.38;2.33;;;8.00;99.90;;;;;;5015407;28;20597;-75
2022/02/03 08:09:08;;;;;;;10.40;2.40;;;8.00;99.90;;;;;;5015491;28;20075;-75
2022/02/03 08:11:39;;;;;;;14.25;2.47;;;8.10;99.90;;;;;;5015045;28;20022;-75
2022/02/03 08:14:12;;;;;;;11.80;2.45;;;8.00;99.90;;;;;;5033587;28;20029;-75
2022/02/03 08:16:43;;;;;;;7.28;2.05;;;7.90;99.90;;;;;;5015356;28;20022;-75
2022/02/03 08:19:16;;;;;;;9.75;2.45;;;7.90;99.90;;;;;;5033581;28;20374;-75
2022/02/03 08:21:46;;;;;;;10.77;3.25;;;7.90;99.90;;;;;;5015227;28;20501;-74
2022/02/03 08:24:19;;;;;;;10.18;2.85;;;8.00;99.90;;;;;;5033053;28;20022;-74
2022/02/03 08:26:53;;;;;;;10.40;3.58;;;8.00;99.90;;;;;;5015159;28;20505;-74
2022/02/03 08:32:09;;;;;;;8.82;3.08;;;7.90;99.90;;;;;;5046080;28;20035;-74
2022/02/03 08:37:19;;;;;;;9.52;3.42;;;8.00;99.90;;;;;;5037834;28;20560;-74
2022/02/03 08:39:57;;;;;;;10.43;3.50;;;8.00;99.90;;;;;;5036634;28;20479;-74
2022/02/03 08:42:22;;;;;;;9.30;3.37;;;7.90;99.90;;;;;;5036505;28;20048;-75
2022/02/03 08:44:49;;;;;;;9.05;3.85;;;7.90;99.90;;;;;;5036455;28;20030;-74
2022/02/03 08:47:15;;;;;;;8.68;3.03;;;7.90;99.90;;;;;;5021043;28;20036;-75
2022/02/03 08:49:45;;;;;;;10.75;4.40;;;7.80;99.90;;;;;;5048194;28;20114;-74
2022/02/03 08:52:21;;;;;;;8.25;4.22;;;7.80;99.90;;;;;;5040126;28;20017;-77
2022/02/03 08:55:07;;;;;;;12.60;4.90;;;7.70;99.90;;;;;;5036680;28;20045;-76
2022/02/03 08:57:45;;;;;;;10.60;4.85;;;7.70;99.90;;;;;;5036396;28;20503;-74
2022/02/03 09:00:38;;;;;;;12.45;5.03;;;7.70;99.90;;;;;;5036734;28;20091;-73
2022/02/03 09:38:58;;;;;;;13.85;6.25;;;7.40;99.90;;;;;;5035409;28;20045;-75
2022/02/03 09:41:45;;;;;;;19.35;6.78;;;7.40;99.90;;;;;;5016548;28;20033;-75
2022/02/03 09:58:26;;;;;;;20.25;6.30;;;7.40;99.90;;;;;;5035351;28;20455;-75
2022/02/03 10:03:36;;;;;;;13.73;4.97;;;7.50;99.90;;;;;;5031373;28;20095;-75
2022/02/03 10:06:11;;;;;;;10.05;4.45;;;7.60;99.90;;;;;;5035624;28;20037;-75
2022/02/03 10:08:37;;;;;;;20.88;5.72;;;7.60;99.90;;;;;;5017444;28;20466;-74
2022/02/03 10:11:17;;;;;;;12.18;3.22;;;7.60;99.90;;;;;;5034980;28;20021;-75
2022/02/03 10:13:51;;;;;;;13.98;5.03;;;7.60;99.90;;;;;;5035078;28;20601;-77
2022/02/03 10:16:20;;;;;;;13.00;5.13;;;7.60;99.90;;;;;;5035148;28;20430;-76
2022/02/03 10:18:48;;;;;;;8.60;3.47;;;7.60;99.90;;;;;;5017553;28;20024;-76
2022/02/03 10:21:15;;;;;;;12.65;4.53;;;7.60;99.90;;;;;;5017346;28;20033;-77
2022/02/03 10:23:55;;;;;;;10.77;4.75;;;7.60;99.90;;;;;;5017606;28;20018;-76
2022/02/03 10:26:20;;;;;;;15.55;4.53;;;7.50;99.90;;;;;;5034752;28;20086;-76
2022/02/03 10:28:57;;;;;;;16.30;5.30;;;7.60;99.90;;;;;;5034888;28;20494;-76
2022/02/03 10:31:24;;;;;;;10.68;4.40;;;7.60;99.90;;;;;;5017140;28;20032;-77
2022/02/03 10:34:01;;;;;;;12.68;4.68;;;7.60;99.90;;;;;;5034730;28;20498;-77
2022/02/03 10:36:58;;;;;;;9.95;5.30;;;7.60;99.90;;;;;;5035372;28;20025;-77
2022/02/03 10:58:00;;;;;;;11.68;3.53;;;7.60;99.90;;;;;;5034581;28;20029;-76
2022/02/03 11:00:54;;;;;;;14.50;4.22;;;7.50;99.90;;;;;;5035234;28;20069;-76
2022/02/03 11:03:24;;;;;;;12.30;4.00;;;7.50;99.90;;;;;;5034245;28;20040;-76
2022/02/03 11:08:46;;;;;;;9.60;4.78;;;7.50;99.90;;;;;;5035214;28;20083;-77
2022/02/03 11:11:17;;;;;;;14.38;4.05;;;7.50;99.90;;;;;;5017350;28;20032;-76
2022/02/03 11:13:43;;;;;;;9.93;3.42;;;7.60;99.90;;;;;;5017553;28;20028;-77
2022/02/03 11:16:11;;;;;;;10.05;4.50;;;7.60;99.90;;;;;;5034360;28;20025;-77
2022/02/03 11:18:39;;;;;;;20.52;5.53;;;7.60;99.90;;;;;;5034052;28;20024;-77
2022/02/03 11:21:05;;;;;;;11.93;3.60;;;7.60;99.90;;;;;;5033790;28;20021;-77
2022/02/03 11:23:37;;;;;;;13.00;4.40;;;7.70;99.90;;;;;;5033884;28;20093;-77
2022/02/03 11:42:37;;;;;;;8.15;3.72;;;7.80;99.90;;;;;;5034043;28;20033;-76
2022/02/03 11:48:23;;;;;;;10.73;3.13;;;10.10;99.90;;;;;;5034126;28;20183;-75
2022/02/03 12:01:46;;;;;;;13.30;3.72;;;7.80;99.90;;;;;;5033320;28;20112;-73
2022/02/03 12:04:34;;;;;;;10.75;4.15;;;7.90;99.90;;;;;;5035422;28;20449;-74
2022/02/03 12:07:35;;;;;;;8.50;3.50;;;7.90;99.90;;;;;;5037047;28;20034;-75
2022/02/03 12:11:07;;;;;;;17.58;5.70;;;7.90;99.90;;;;;;5037789;28;20109;-74
2022/02/03 12:21:39;;;;;;;8.70;3.30;;;8.00;99.90;;;;;;5037869;28;20030;-73
2022/02/03 12:27:03;;;;;;;10.35;4.47;;;8.00;99.90;;;;;;5036956;28;20041;-74
2022/02/03 12:32:13;;;;;;;17.70;5.65;;;8.00;99.90;;;;;;5161755;23;20114;-76
2022/02/03 12:37:49;;;;;;;12.07;4.35;;;7.90;99.90;;;;;;5056868;28;20405;-76
2022/02/03 12:42:57;;;;;;;9.45;3.60;;;8.00;99.90;;;;;;5057018;28;20037;-75
2022/02/03 12:48:08;;;;;;;11.60;4.00;;;8.00;99.90;;;;;;5056633;28;20394;-76
2022/02/03 12:50:36;;;;;;;14.00;4.32;;;8.00;99.90;;;;;;5038542;28;20017;-76
2022/02/03 12:53:04;;;;;;;13.02;4.18;;;8.10;99.90;;;;;;5056384;28;20025;-76
2022/02/03 12:55:30;;;;;;;12.02;4.60;;;8.10;99.90;;;;;;5056293;28;20032;-75
2022/02/03 12:57:59;;;;;;;13.23;4.32;;;8.10;99.90;;;;;;5056353;28;20021;-76
2022/02/03 13:00:43;;;;;;;12.40;3.67;;;8.00;99.90;;;;;;5056308;28;20108;-76
2022/02/03 13:03:11;;;;;;;12.00;4.03;;;8.00;99.90;;;;;;5056199;28;20025;-75
2022/02/03 13:05:39;;;;;;;9.57;3.95;;;7.90;99.90;;;;;;5056870;28;20019;-76
2022/02/03 13:08:07;;;;;;;11.35;3.65;;;7.90;99.90;;;;;;5056108;28;20024;-75
2022/02/03 13:10:36;;;;;;;15.38;4.93;;;7.80;99.90;;;;;;5038319;28;20075;-76
2022/02/03 13:13:21;;;;;;;;;;;7.70;99.90;;;;;;5056969;28;20079;-75
2022/02/03 13:15:47;;;;;;;12.23;4.38;;;7.70;99.90;;;;;;5055801;28;19904;-75
2022/02/03 13:18:20;;;;;;;15.07;4.03;;;7.70;99.90;;;;;;5037920;28;20025;-76
2022/02/03 13:20:53;;;;;;;11.95;4.00;;;7.60;99.90;;;;;;5055902;28;20021;-75
2022/02/03 13:23:23;;;;;;;10.50;3.50;;;7.50;99.90;;;;;;5056015;28;20466;-75
2022/02/03 13:30:55;;;;;;;10.82;3.47;;;7.60;99.90;;;;;;5055660;28;20098;-75
2022/02/03 13:33:29;;;;;;;11.63;4.32;;;7.60;99.90;;;;;;5055922;28;20390;-75
2022/02/03 13:38:44;;;;;;;10.35;4.55;;;7.60;99.90;;;;;;5056317;28;20064;-76
2022/02/03 13:41:19;;;;;;;14.60;4.30;;;7.70;99.90;;;;;;5037668;28;20021;-75
2022/02/03 13:43:45;;;;;;;12.80;3.58;;;7.70;99.90;;;;;;5037655;28;20024;-75
2022/02/03 13:46:24;;;;;;;12.70;4.03;;;7.70;99.90;;;;;;5055394;28;20066;-75
2022/02/03 13:48:51;;;;;;;16.85;5.30;;;7.60;99.90;;;;;;5055704;28;20092;-76
2022/02/03 13:51:19;;;;;;;10.57;4.63;;;7.60;99.90;;;;;;5055246;28;20021;-75
2022/02/03 13:54:02;;;;;;;14.55;5.13;;;7.50;99.90;;;;;;5037218;28;20025;-76
2022/02/03 14:19:13;;;;;;;14.45;4.13;;;7.60;99.90;;;;;;5054769;28;20482;-73
2022/02/03 14:21:41;;;;;;;6.93;3.00;;;7.50;99.90;;;;;;5054338;28;20048;-73
2022/02/03 14:29:22;;;;;;;11.30;2.55;;;7.40;99.90;;;;;;5054934;28;20029;-73
2022/02/03 14:31:56;;;;;;;9.30;3.28;;;7.40;99.90;;;;;;5054690;28;20112;-73
2022/02/03 14:34:27;;;;;;;8.60;3.13;;;7.50;99.90;;;;;;5036699;28;20020;-73
2022/02/03 14:40:11;;;;;;;15.73;4.00;;;7.50;99.90;;;;;;5010052;28;20044;-73
2022/02/03 14:42:40;;;;;;;8.75;3.75;;;7.50;99.90;;;;;;5036256;28;20021;-74
2022/02/03 14:45:07;;;;;;;6.82;2.53;;;7.50;99.90;;;;;;5054465;28;20024;-73
2022/02/03 14:47:33;;;;;;;10.35;3.35;;;7.50;99.90;;;;;;5036544;28;20025;-74
2022/02/03 14:50:01;;;;;;;8.27;2.90;;;7.50;99.90;;;;;;5036265;28;20017;-74
2022/02/03 14:58:15;;;;;;;9.68;3.45;;;7.40;99.90;;;;;;5054538;28;20087;-73
2022/02/03 15:00:44;;;;;;;8.93;3.00;;;7.40;99.90;;;;;;5054983;28;20040;-73
2022/02/03 15:03:10;;;;;;;10.20;3.72;;;7.40;99.90;;;;;;5053795;28;20021;-73
2022/02/03 15:05:37;;;;;;;9.45;3.15;;;7.40;99.90;;;;;;5053838;28;20013;-73
2022/02/03 15:08:06;;;;;;;10.90;3.67;;;7.40;99.90;;;;;;5053789;28;20083;-74
2022/02/03 15:13:19;;;;;;;6.88;2.50;;;7.40;99.90;;;;;;5053959;28;20115;-74
2022/02/03 15:15:45;;;;;;;11.30;3.90;;;7.50;99.90;;;;;;5053736;28;20104;-73
2022/02/03 15:18:11;;;;;;;8.63;3.00;;;7.40;99.90;;;;;;5053827;28;20104;-73
2022/02/03 15:20:37;;;;;;;9.40;3.45;;;7.40;99.90;;;;;;5053633;28;20430;-73
2022/02/03 15:23:03;;;;;;;7.30;3.17;;;7.40;99.90;;;;;;5035486;28;20363;-74
2022/02/03 15:25:30;;;;;;;7.72;2.97;;;7.40;99.90;;;;;;5035727;28;20127;-74
2022/02/03 15:27:56;;;;;;;11.57;3.22;;;7.40;99.90;;;;;;5035655;28;20021;-74
2022/02/03 15:30:22;;;;;;;8.65;3.33;;;7.40;99.90;;;;;;5053303;28;20029;-74
2022/02/03 15:32:49;;;;;;;12.25;3.42;;;7.40;99.90;;;;;;5053232;28;20025;-74
2022/02/03 15:36:01;;;;;;;12.55;4.40;;;7.50;99.90;;;;;;5035572;28;20474;-74
2022/02/03 15:38:06;;;;;;;9.93;3.47;;;7.50;99.90;;;;;;5039858;28;20036;-74
2022/02/03 15:40:35;;;;;;;9.00;3.50;;;7.50;99.90;;;;;;5053549;28;20497;-75
2022/02/03 15:43:07;;;;;;;9.93;4.18;;;7.50;99.90;;;;;;5053163;28;20115;-74
2022/02/03 15:45:48;;;;;;;13.85;4.50;;;7.50;99.90;;;;;;5053346;28;20036;-74
2022/02/03 15:48:31;;;;;;;12.27;4.10;;;7.50;99.90;;;;;;5053553;28;20017;-74
2022/02/03 15:51:24;;;;;;;13.45;4.50;;;7.50;99.90;;;;;;5053854;28;20124;-74
2022/02/03 15:56:59;;;;;;;9.38;3.85;;;7.50;99.90;;;;;;5053694;28;20079;-73
2022/02/03 16:18:03;;;;;;;11.10;3.97;;;7.60;99.90;;;;;;5053384;28;20025;-74
2022/02/03 16:20:37;;;;;;;9.48;3.58;;;7.50;99.90;;;;;;5053134;28;20146;-75
2022/02/03 16:52:39;;;;;;;15.55;5.07;;;7.40;99.90;;;;;;5057135;28;20040;-78
2022/02/03 16:55:09;;;;;;;11.98;4.47;;;7.40;99.90;;;;;;5057258;28;20461;-79
2022/02/03 16:57:35;;;;;;;10.90;4.32;;;7.40;99.90;;;;;;5057019;28;20025;-79
2022/02/03 17:00:13;;;;;;;10.05;5.00;;;7.40;99.90;;;;;;5056919;28;20021;-78
2022/02/03 17:02:39;;;;;;;15.43;4.55;;;7.40;99.90;;;;;;5039536;28;20406;-78
2022/02/03 17:05:06;;;;;;;10.55;4.80;;;7.30;99.90;;;;;;5057691;28;20032;-79
2022/02/03 17:07:32;;;;;;;16.35;4.63;;;7.40;99.90;;;;;;5056517;28;20032;-78
2022/02/03 17:09:59;;;;;;;13.50;4.78;;;7.40;99.90;;;;;;5056994;28;20036;-78
2022/02/03 17:12:44;;;;;;;15.57;4.82;;;7.30;99.90;;;;;;5055821;28;20033;-79
2022/02/03 17:15:10;;;;;;;9.52;4.25;;;7.40;99.90;;;;;;5038405;28;20023;-77
2022/02/03 17:17:36;;;;;;;11.65;4.45;;;7.40;99.90;;;;;;5061465;28;20425;-79
2022/02/03 17:20:02;;;;;;;10.45;4.47;;;7.40;99.90;;;;;;5045789;28;20032;-79
2022/02/03 17:22:33;;;;;;;12.38;5.10;;;7.40;99.90;;;;;;5057933;28;20029;-79
2022/02/03 17:30:05;;;;;;;12.13;5.30;;;7.40;99.90;;;;;;5057439;28;20029;-78
2022/02/03 17:55:23;;;;;;;11.43;6.22;;;7.30;99.90;;;;;;5055553;28;20094;-75
2022/02/03 18:03:19;;;;;;;16.95;6.18;;;7.30;99.90;;;;;;5054601;28;20044;-75
2022/02/03 18:19:42;;;;;;;11.98;5.57;;;7.40;99.90;;;;;;5055524;28;20040;-74
2022/02/03 18:46:43;;;;;;;14.10;5.82;;;7.40;99.90;;;;;;5054733;28;20033;-75
2022/02/03 18:51:59;;;;;;;9.13;4.72;;;7.40;99.90;;;;;;5054627;28;20028;-75
2022/02/03 18:54:22;;;;;;;14.23;5.53;;;7.50;99.90;;;;;;5052699;28;20090;-75
2022/02/03 18:57:10;;;;;;;13.27;5.35;;;7.50;99.90;;;;;;5036351;28;20028;-75
2022/02/03 19:23:46;;;;;;;14.38;6.00;;;7.50;99.90;;;;;;5053937;28;20147;-75
2022/02/03 19:29:02;;;;;;;15.35;5.93;;;7.50;99.90;;;;;;5049897;28;20029;-74
2022/02/03 20:01:53;;;;;;;16.20;7.38;;;7.50;99.90;;;;;;5033392;28;20041;-76
2022/02/03 20:10:02;;;;;;;17.20;7.18;;;7.60;99.90;;;;;;4973442;28;19956;-77
2022/02/03 20:12:28;;;;;;;18.55;7.20;;;7.60;99.90;;;;;;4973141;28;20038;-76
2022/02/03 20:14:53;;;;;;;18.27;7.97;;;7.60;99.90;;;;;;4997556;28;20041;-76
2022/02/03 20:17:19;;;;;;;16.45;5.32;;;7.60;99.90;;;;;;5032338;28;20056;-76
2022/02/03 20:19:47;;;;;;;15.55;6.78;;;7.60;99.90;;;;;;5035773;28;20393;-76
2022/02/03 20:22:13;;;;;;;14.20;6.32;;;7.60;99.90;;;;;;5035259;28;20118;-77
2022/02/03 20:24:38;;;;;;;14.38;6.25;;;7.60;99.90;;;;;;5044342;28;20079;-77
2022/02/03 20:27:04;;;;;;;18.05;7.03;;;7.60;99.90;;;;;;5037237;28;20022;-77
2022/02/03 20:29:30;;;;;;;19.15;7.10;;;7.60;99.90;;;;;;5037102;28;20433;-77
2022/02/03 20:31:55;;;;;;;18.13;6.60;;;7.60;99.90;;;;;;5036888;28;20033;-77
2022/02/03 20:34:22;;;;;;;20.73;6.78;;;7.60;99.90;;;;;;5044083;28;20104;-76
2022/02/03 20:36:48;;;;;;;15.20;7.50;;;7.60;99.90;;;;;;5057034;28;20025;-76
2022/02/03 20:39:13;;;;;;;19.27;7.90;;;7.60;99.90;;;;;;5057254;28;20082;-75
2022/02/03 20:41:39;;;;;;;14.63;6.93;;;7.60;99.90;;;;;;5056573;28;20032;-76
2022/02/03 20:44:06;;;;;;;17.45;6.78;;;7.50;99.90;;;;;;5037296;28;20037;-76
2022/02/03 20:46:32;;;;;;;18.55;6.28;;;7.50;99.90;;;;;;5036893;28;20025;-77
2022/02/03 20:48:58;;;;;;;16.80;7.07;;;7.50;99.90;;;;;;5037602;28;20467;-77
2022/02/03 20:51:24;;;;;;;15.50;6.63;;;7.60;99.90;;;;;;5037073;28;20029;-76
2022/02/03 20:53:50;;;;;;;17.58;6.97;;;7.60;99.90;;;;;;5052806;28;20029;-78
2022/02/03 20:56:17;;;;;;;17.23;6.45;;;7.60;99.90;;;;;;5056469;28;20062;-77
2022/02/03 20:58:44;;;;;;;15.60;6.63;;;7.60;99.90;;;;;;5056400;28;20389;-77
2022/02/03 21:01:20;;;;;;;16.00;6.60;;;7.60;99.90;;;;;;5030527;28;20022;-76
2022/02/03 21:03:48;;;;;;;15.20;6.45;;;7.60;99.90;;;;;;5018555;28;20068;-74
2022/02/03 21:06:15;;;;;;;18.65;6.93;;;7.60;99.90;;;;;;5018887;28;20087;-77
2022/02/03 21:08:45;;;;;;;16.52;6.53;;;7.50;99.90;;;;;;5018484;28;20100;-75
2022/02/03 21:11:11;;;;;;;17.75;6.47;;;7.60;99.90;;;;;;5042742;28;20021;-74
2022/02/03 21:13:37;;;;;;;18.00;6.88;;;7.60;99.90;;;;;;5055985;28;20025;-74
2022/02/03 21:16:05;;;;;;;16.35;5.72;;;7.60;99.90;;;;;;5056207;28;20036;-74
2022/02/03 21:18:35;;;;;;;13.55;6.00;;;7.60;99.90;;;;;;5056024;28;20067;-75
2022/02/03 21:21:01;;;;;;;17.23;6.53;;;7.60;99.90;;;;;;5050169;28;20025;-76
2022/02/03 21:23:26;;;;;;;16.52;5.93;;;7.50;99.90;;;;;;5017966;28;20544;-75
2022/02/03 21:25:55;;;;;;;15.90;5.95;;;7.60;99.90;;;;;;5035880;28;20026;-75
2022/02/03 21:28:23;;;;;;;16.05;6.05;;;7.60;99.90;;;;;;5035984;28;20108;-75
2022/02/03 21:30:50;;;;;;;20.08;7.65;;;7.60;99.90;;;;;;5035883;28;20053;-75
2022/02/03 21:33:24;;;;;;;19.88;7.60;;;7.60;99.90;;;;;;5019043;28;20037;-75
2022/02/03 21:35:51;;;;;;;17.52;6.57;;;7.60;99.90;;;;;;5018005;28;20108;-75
2022/02/03 21:38:17;;;;;;;15.55;6.82;;;7.70;99.90;;;;;;5035723;28;20029;-75
2022/02/03 21:40:42;;;;;;;17.85;6.82;;;7.70;99.90;;;;;;5036231;28;20038;-75
2022/02/03 21:43:08;;;;;;;18.15;6.10;;;7.70;99.90;;;;;;5034064;28;20021;-75
2022/02/03 21:45:35;;;;;;;18.65;6.38;;;7.70;99.90;;;;;;5029386;28;20063;-76
2022/02/03 21:48:01;;;;;;;16.00;5.32;;;7.70;99.90;;;;;;5017786;28;20018;-76
2022/02/03 21:50:33;;;;;;;13.70;5.03;;;7.70;99.90;;;;;;5017774;28;20108;-75
2022/02/03 21:52:59;;;;;;;18.90;6.93;;;7.70;99.90;;;;;;5035572;28;20025;-76
2022/02/03 21:55:27;;;;;;;15.27;6.28;;;7.70;99.90;;;;;;5041241;28;20021;-75
2022/02/03 21:57:55;;;;;;;15.50;6.20;;;7.70;99.90;;;;;;5055173;28;20021;-75
2022/02/03 22:00:21;;;;;;;13.90;6.40;;;7.80;99.90;;;;;;5055305;28;20428;-75
2022/02/03 22:02:47;;;;;;;13.45;4.90;;;7.80;99.90;;;;;;5037260;28;20017;-76
2022/02/03 22:05:13;;;;;;;15.10;5.25;;;7.80;99.90;;;;;;5038504;28;20088;-76
2022/02/03 22:07:41;;;;;;;13.68;6.05;;;7.80;99.90;;;;;;5017568;28;20021;-75
2022/02/03 22:10:13;;;;;;;14.93;5.15;;;7.80;99.90;;;;;;5017386;28;20395;-76
2022/02/03 22:12:38;;;;;;;16.60;5.90;;;7.80;99.90;;;;;;5035526;28;20496;-77
2022/02/03 22:15:05;;;;;;;13.85;5.22;;;7.80;99.90;;;;;;5049065;28;20025;-74
2022/02/03 22:17:31;;;;;;;12.18;4.50;;;7.80;99.90;;;;;;5037800;28;20029;-78
2022/02/03 22:19:58;;;;;;;12.13;4.55;;;7.80;99.90;;;;;;5037398;28;20029;-78
2022/02/03 22:38:42;;;;;;;13.20;4.82;;;7.80;99.90;;;;;;5051279;28;20036;-78
2022/02/03 22:49:10;;;;;;;12.02;4.78;;;7.80;99.90;;;;;;5034627;28;20026;-77
2022/02/03 22:51:39;;;;;;;15.75;5.93;;;7.80;99.90;;;;;;5016584;28;20116;-77
2022/02/03 22:54:06;;;;;;;12.60;4.75;;;7.90;99.90;;;;;;5034441;28;20101;-78
2022/02/03 22:56:32;;;;;;;14.02;6.05;;;7.80;99.90;;;;;;5017567;28;20048;-77
2022/02/03 23:01:42;;;;;;;12.57;5.25;;;7.80;99.90;;;;;;5035241;28;20406;-78
2022/02/03 23:04:09;;;;;;;14.45;5.97;;;7.80;99.90;;;;;;5016717;28;20452;-78
2022/02/03 23:06:34;;;;;;;13.00;4.60;;;7.80;99.90;;;;;;5016842;28;20025;-78
2022/02/03 23:09:15;;;;;;;14.15;5.28;;;7.80;99.90;;;;;;5053663;28;20059;-78
2022/02/03 23:12:05;;;;;;;14.35;6.82;;;7.80;99.90;;;;;;5054305;28;20478;-79
2022/02/03 23:20:19;;;;;;;17.65;6.65;;;7.80;99.90;;;;;;5029472;28;20434;-80
2022/02/03 23:22:45;;;;;;;20.95;6.85;;;7.80;99.90;;;;;;5019995;28;20502;-79
2022/02/03 23:25:16;;;;;;;17.63;7.05;;;7.80;99.90;;;;;;5019638;28;20021;-80
2022/02/03 23:30:19;;;;;;;15.00;6.75;;;7.80;99.90;;;;;;5040786;28;20025;-79
2022/02/03 23:32:49;;;;;;;16.95;6.65;;;7.80;99.90;;;;;;5036216;28;20036;-79
2022/02/03 23:35:30;;;;;;;20.15;7.18;;;7.70;99.90;;;;;;5054218;28;20020;-78
2022/02/03 23:38:04;;;;;;;17.35;7.25;;;7.80;99.90;;;;;;5036004;28;20055;-79
2022/02/03 23:41:05;;;;;;;20.15;8.30;;;7.80;99.90;;;;;;5035612;28;20068;-78
2022/02/03 23:44:02;;;;;;;20.65;8.25;;;7.80;99.90;;;;;;5053395;28;20112;-79
2022/02/03 23:46:29;;;;;;;17.13;6.32;;;7.80;99.90;;;;;;5052901;28;20036;-78
